Tuesday, September 2, 2014, 1:19 PM EDT
Back to Local

KMTP, Montauk Airport

Location: Montauk, NY, United States Lat: 41.067
Local Time: 1:19 PM EDT (17:19 GMT) Lon: -71.917
Time Zone: US/Eastern Elev: 6 ft

Show me the last for .
Show Coded

Time T Td Feel RH Dir Speed Gust Alt SLP Vis Weather Sky Remarks
2014-09-02 12:54 83 74 90 74 Variable 7 - 29.92 29.91 0 None
2014-09-02 11:54 82 74 89 76 Variable 6 - 29.93 29.93 0 None
2014-09-02 10:54 79 73 84 82 Variable 3 - 29.95 29.94 0 None
2014-09-02 09:54 80 74 86 81 Variable 3 - 29.95 29.95 0 None
2014-09-02 08:54 77 73 82 87 150° 3 - 29.95 29.95 0 None
2014-09-02 07:54 74 73 78 97 - Calm - 29.95 29.95 0 6-hr Min Temp (8am): 72.0°F
6-hr Max Temp (8am): 73.9°F
2014-09-02 06:54 73 72 77 96 150° 5 - 29.93 29.93 0 None
2014-09-02 05:54 72 71 77 97 140° 3 - 29.92 29.92 0 None
2014-09-02 04:54 73 72 77 96 Variable 3 - 29.91 29.91 0 None
2014-09-02 03:54 73 72 77 96 - Calm - 29.92 29.92 0 None
2014-09-02 01:54 73 72 77 96 210° 5 - 29.95 29.95 0 6-hr Min Temp (2am): 73.0°F
6-hr Max Temp (2am): 73.9°F
2014-09-02 00:54 74 72 78 93 Variable 6 - 29.96 29.96 0 24-hr Min Temp (1am): 73.0°F
24-hr Max Temp (1am): 84.9°F
2014-09-01 23:54 74 72 78 93 Variable 3 - 29.97 29.97 0 None
2014-09-01 22:54 73 72 77 96 Variable 3 - 29.98 29.98 0 None
2014-09-01 21:54 74 72 78 93 210° 7 - 29.98 29.98 0 None
2014-09-01 20:54 74 71 78 90 200° 8 - 29.97 29.97 0 None
2014-09-01 19:54 74 71 78 90 220° 6 - 29.96 29.96 0 6-hr Min Temp (8pm): 73.9°F
6-hr Max Temp (8pm): 84.9°F
2014-09-01 17:54 78 71 82 79 210° 8 - 29.96 29.96 0 None
2014-09-01 16:54 81 71 86 71 190° 6 - 29.95 29.95 0 None
2014-09-01 15:54 83 71 88 67 210° 5 - 29.97 29.96 0 None
2014-09-01 14:54 84 72 90 67 260° 3 - 29.97 29.97 0 None
2014-09-01 13:54 85 71 91 63 Variable 5 - 29.98 29.98 0 6-hr Min Temp (2pm): 73.0°F
6-hr Max Temp (2pm): 84.9°F

Support USWX by starting your Amazon purchase here.